createdAt,value
2023-02-17T00:01:03.160Z,5.89
2023-02-17T00:03:31.256Z,5.75
2023-02-17T00:05:59.198Z,5.72
2023-02-17T00:08:27.291Z,5.64
2023-02-17T00:10:59.251Z,5.66
2023-02-17T00:13:28.746Z,6.03
2023-02-17T00:15:56.933Z,5.70
2023-02-17T00:18:25.201Z,5.57
2023-02-17T00:20:53.429Z,5.43
2023-02-17T00:23:21.989Z,5.62
2023-02-17T00:25:50.068Z,5.45
2023-02-17T00:28:18.114Z,5.29
2023-02-17T00:30:47.577Z,5.45
2023-02-17T00:33:15.714Z,5.31
2023-02-17T00:35:43.838Z,5.32
2023-02-17T00:38:11.930Z,5.26
2023-02-17T00:40:40.250Z,5.29
2023-02-17T00:43:08.346Z,5.38
2023-02-17T00:45:36.597Z,5.68
2023-02-17T00:48:06.165Z,5.68
2023-02-17T00:50:34.353Z,5.62
2023-02-17T00:53:02.498Z,5.61
2023-02-17T00:55:30.508Z,5.60
2023-02-17T00:57:58.479Z,5.56
2023-02-17T01:00:26.734Z,5.51
2023-02-17T01:02:56.507Z,5.43
2023-02-17T01:05:27.481Z,5.52
2023-02-17T01:07:55.513Z,5.53
2023-02-17T01:10:23.520Z,5.46
2023-02-17T01:12:51.570Z,5.43
2023-02-17T01:15:19.925Z,5.42
2023-02-17T01:17:47.949Z,5.40
2023-02-17T01:20:16.124Z,5.46
2023-02-17T01:22:47.002Z,5.41
2023-02-17T01:25:15.011Z,5.34
2023-02-17T01:27:43.157Z,5.27
2023-02-17T01:30:11.556Z,5.25
2023-02-17T01:32:41.281Z,5.23
2023-02-17T01:35:10.215Z,5.28
2023-02-17T01:37:38.263Z,5.32
2023-02-17T01:40:08.556Z,5.19
2023-02-17T01:42:36.604Z,5.15
2023-02-17T01:45:22.873Z,5.31
2023-02-17T01:47:54.178Z,5.06
2023-02-17T01:50:23.861Z,4.88
2023-02-17T01:52:52.550Z,5.14
2023-02-17T01:55:25.040Z,4.96
2023-02-17T01:57:54.332Z,5.00
2023-02-17T02:00:22.972Z,5.14
2023-02-17T02:02:51.709Z,5.37
2023-02-17T02:05:20.799Z,5.09
2023-02-17T02:07:50.009Z,4.87
2023-02-17T02:10:19.665Z,4.87
2023-02-17T02:12:49.176Z,4.96
2023-02-17T02:15:18.350Z,4.89
2023-02-17T02:17:50.938Z,5.10
2023-02-17T02:20:34.470Z,4.92
2023-02-17T02:23:14.134Z,4.89
2023-02-17T02:26:03.195Z,4.77
2023-02-17T02:28:41.501Z,4.66
2023-02-17T02:31:21.381Z,4.82
2023-02-17T02:33:53.210Z,4.80
2023-02-17T02:36:24.461Z,4.85
2023-02-17T02:38:57.924Z,4.88
2023-02-17T02:41:28.799Z,4.81
2023-02-17T02:43:58.345Z,4.92
2023-02-17T02:46:26.425Z,4.80
2023-02-17T02:48:57.008Z,4.73
2023-02-17T02:51:37.801Z,4.69
2023-02-17T02:54:18.808Z,4.90
2023-02-17T02:56:55.280Z,4.99
2023-02-17T02:59:31.717Z,4.94
2023-02-17T03:02:06.450Z,4.97
2023-02-17T03:04:38.142Z,4.95
2023-02-17T03:07:09.858Z,4.74
2023-02-17T03:09:37.997Z,4.71
2023-02-17T03:12:06.488Z,4.64
2023-02-17T03:14:37.947Z,4.64
2023-02-17T03:17:06.090Z,4.71
2023-02-17T03:19:35.773Z,4.68
2023-02-17T03:22:07.875Z,4.66
2023-02-17T03:24:36.090Z,4.81
2023-02-17T03:27:04.315Z,4.85
2023-02-17T03:29:32.311Z,5.10
2023-02-17T03:32:00.620Z,5.08
2023-02-17T03:34:28.982Z,5.03
2023-02-17T03:36:58.768Z,5.07
2023-02-17T03:39:27.661Z,4.92
2023-02-17T03:41:55.660Z,4.80
2023-02-17T03:44:23.680Z,4.95
2023-02-17T03:46:51.811Z,4.85
2023-02-17T03:49:19.905Z,4.91
2023-02-17T03:51:49.073Z,4.88
2023-02-17T03:54:19.334Z,4.89
2023-02-17T03:56:48.876Z,4.87
2023-02-17T03:59:17.199Z,4.95
2023-02-17T04:01:45.189Z,5.00
2023-02-17T04:04:13.254Z,5.13
2023-02-17T04:06:41.912Z,5.26
2023-02-17T04:09:09.934Z,5.03
2023-02-17T04:11:39.682Z,5.37
2023-02-17T04:14:07.722Z,5.36
2023-02-17T04:16:39.515Z,5.27
2023-02-17T04:19:07.627Z,5.47
2023-02-17T04:21:35.980Z,5.13
2023-02-17T04:24:05.010Z,5.11
2023-02-17T04:26:33.148Z,5.05
2023-02-17T04:29:04.503Z,5.03
2023-02-17T04:31:32.674Z,5.16
2023-02-17T04:34:01.552Z,5.09
2023-02-17T04:36:29.572Z,4.98
2023-02-17T04:38:57.548Z,4.98
2023-02-17T04:41:25.614Z,5.11
2023-02-17T04:43:54.063Z,5.08
2023-02-17T04:46:24.567Z,4.99
2023-02-17T04:48:52.604Z,5.29
2023-02-17T04:51:20.726Z,5.11
2023-02-17T04:53:48.656Z,5.26
2023-02-17T04:56:16.848Z,5.19
2023-02-17T04:58:44.893Z,5.23
2023-02-17T05:01:12.946Z,5.22
2023-02-17T05:03:42.389Z,5.24
2023-02-17T05:06:10.372Z,5.25
2023-02-17T05:08:38.456Z,5.21
2023-02-17T05:11:06.585Z,5.14
2023-02-17T05:13:34.674Z,5.31
2023-02-17T05:16:02.813Z,5.31
2023-02-17T05:18:30.893Z,5.23
2023-02-17T05:21:00.315Z,5.22
2023-02-17T05:23:28.327Z,5.24
2023-02-17T05:25:56.320Z,5.20
2023-02-17T05:28:24.386Z,5.26
2023-02-17T05:30:52.410Z,5.32
2023-02-17T05:33:20.491Z,5.44
2023-02-17T05:35:48.448Z,5.50
2023-02-17T05:38:17.981Z,5.37
2023-02-17T05:40:46.738Z,5.54
2023-02-17T05:43:14.687Z,5.47
2023-02-17T05:45:42.798Z,5.52
2023-02-17T05:48:10.817Z,5.60
2023-02-17T05:50:38.814Z,5.53
2023-02-17T05:53:06.994Z,5.73
2023-02-17T05:55:36.641Z,5.99
2023-02-17T05:58:04.669Z,5.72
2023-02-17T06:00:32.931Z,5.70
2023-02-17T06:03:01.045Z,5.83
2023-02-17T06:05:30.149Z,5.70
2023-02-17T06:07:58.138Z,5.59
2023-02-17T06:10:26.150Z,5.58
2023-02-17T06:12:55.674Z,5.84
2023-02-17T06:15:23.761Z,5.67
2023-02-17T06:17:51.790Z,5.47
2023-02-17T06:20:19.971Z,5.49
2023-02-17T06:22:47.956Z,5.45
2023-02-17T06:25:16.312Z,5.41
2023-02-17T06:27:44.428Z,5.61
2023-02-17T06:30:15.976Z,5.74
2023-02-17T06:32:44.819Z,5.75
2023-02-17T06:35:13.489Z,5.77
2023-02-17T06:37:41.527Z,5.82
2023-02-17T06:40:10.587Z,6.00
2023-02-17T06:42:38.639Z,5.86
2023-02-17T06:45:06.954Z,5.89
2023-02-17T06:47:37.206Z,5.86
2023-02-17T06:50:05.873Z,6.00
2023-02-17T06:52:33.850Z,5.93
2023-02-17T06:55:01.842Z,5.88
2023-02-17T06:57:29.979Z,5.94
2023-02-17T06:59:57.996Z,6.07
2023-02-17T07:02:26.297Z,6.02
2023-02-17T07:04:55.755Z,6.06
2023-02-17T07:07:24.985Z,5.94
2023-02-17T07:09:57.919Z,6.08
2023-02-17T07:12:30.816Z,5.97
2023-02-17T07:15:03.750Z,5.95
2023-02-17T07:17:32.169Z,6.01
2023-02-17T07:20:05.851Z,5.93
2023-02-17T07:22:37.779Z,5.98
2023-02-17T07:25:06.668Z,5.82
2023-02-17T07:27:36.618Z,6.21
2023-02-17T07:30:05.812Z,6.06
2023-02-17T07:32:34.419Z,6.00
2023-02-17T07:35:04.831Z,6.03
2023-02-17T07:37:33.132Z,6.03
2023-02-17T07:40:02.413Z,6.18
2023-02-17T07:43:03.229Z,6.42
2023-02-17T07:45:31.717Z,6.26
2023-02-17T07:48:00.540Z,6.02
2023-02-17T07:50:29.054Z,6.39
2023-02-17T07:52:57.908Z,6.38
2023-02-17T07:55:26.217Z,6.37
2023-02-17T07:57:54.748Z,5.81
2023-02-17T08:00:24.681Z,6.38
2023-02-17T08:02:53.006Z,6.28
2023-02-17T08:05:26.607Z,6.40
2023-02-17T08:08:19.445Z,6.43
2023-02-17T08:11:08.739Z,6.12
2023-02-17T08:13:44.398Z,6.27
2023-02-17T08:16:14.152Z,6.41
2023-02-17T08:18:42.772Z,6.37
2023-02-17T08:21:16.886Z,5.27
2023-02-17T08:23:52.074Z,6.67
2023-02-17T08:26:21.000Z,6.40
2023-02-17T08:28:50.397Z,6.55
2023-02-17T08:31:25.508Z,6.41
2023-02-17T08:33:55.350Z,6.57
2023-02-17T08:36:30.320Z,6.53
2023-02-17T08:38:59.520Z,6.58
2023-02-17T08:41:32.048Z,6.54
2023-02-17T08:44:02.796Z,6.71
2023-02-17T08:46:34.510Z,6.74
2023-02-17T08:49:03.032Z,6.74
2023-02-17T08:51:31.557Z,6.61
2023-02-17T08:54:03.117Z,6.56
2023-02-17T08:56:31.891Z,6.50
2023-02-17T08:59:02.393Z,6.62
2023-02-17T09:01:34.163Z,6.67
2023-02-17T09:04:06.953Z,6.64
2023-02-17T09:06:38.162Z,6.69
2023-02-17T09:09:09.490Z,6.78
2023-02-17T09:11:40.168Z,6.94
2023-02-17T09:14:08.872Z,6.61
2023-02-17T09:16:41.472Z,6.88
2023-02-17T09:19:18.212Z,6.92
2023-02-17T09:21:46.814Z,7.01
2023-02-17T09:24:16.520Z,6.96
2023-02-17T09:26:44.942Z,7.09
2023-02-17T09:29:13.334Z,7.12
2023-02-17T09:31:43.868Z,6.43
2023-02-17T09:34:13.714Z,7.26
2023-02-17T09:36:43.673Z,6.74
2023-02-17T09:39:14.427Z,7.27
2023-02-17T09:41:47.646Z,7.09
2023-02-17T09:44:26.125Z,7.35
2023-02-17T09:47:03.134Z,7.39
2023-02-17T09:49:38.693Z,7.40
2023-02-17T09:52:14.432Z,7.35
2023-02-17T09:54:51.690Z,6.89
2023-02-17T09:57:25.154Z,7.45
2023-02-17T09:59:59.135Z,7.52
2023-02-17T10:02:36.892Z,7.55
2023-02-17T10:05:12.272Z,7.44
2023-02-17T10:07:47.104Z,7.73
2023-02-17T10:10:22.720Z,7.69
2023-02-17T10:12:56.132Z,7.71
2023-02-17T10:15:28.544Z,7.69
2023-02-17T10:18:06.093Z,7.76
2023-02-17T10:20:38.896Z,7.63
2023-02-17T10:23:19.778Z,7.76
2023-02-17T10:26:09.618Z,7.59
2023-02-17T10:28:53.825Z,7.43
2023-02-17T10:31:45.145Z,7.33
2023-02-17T10:34:35.810Z,7.39
2023-02-17T10:37:20.507Z,7.24
2023-02-17T10:39:55.595Z,7.34
2023-02-17T10:42:30.127Z,7.30
2023-02-17T10:45:03.269Z,7.32
2023-02-17T10:47:33.273Z,7.35
2023-02-17T10:50:07.807Z,7.36
2023-02-17T10:52:40.542Z,7.54
2023-02-17T10:55:22.736Z,7.55
2023-02-17T10:57:56.976Z,7.31
2023-02-17T11:00:26.845Z,7.38
2023-02-17T11:02:56.778Z,7.59
2023-02-17T11:05:30.631Z,7.69
2023-02-17T11:08:03.573Z,7.43
2023-02-17T11:10:33.981Z,7.53
2023-02-17T11:13:04.462Z,7.53
2023-02-17T11:15:36.840Z,7.39
2023-02-17T11:18:13.020Z,7.46
2023-02-17T11:20:43.372Z,7.35
2023-02-17T11:23:26.718Z,7.54
2023-02-17T11:26:00.978Z,7.54
2023-02-17T11:28:30.488Z,7.55
2023-02-17T11:31:02.615Z,7.77
2023-02-17T11:33:35.297Z,7.50
2023-02-17T11:36:08.327Z,7.66
2023-02-17T11:38:45.345Z,7.46
2023-02-17T11:41:14.139Z,7.43
2023-02-17T11:43:54.412Z,7.66
2023-02-17T11:46:29.213Z,7.65
2023-02-17T11:49:47.777Z,7.59
2023-02-17T11:52:41.180Z,7.57
2023-02-17T11:55:21.220Z,7.63
2023-02-17T11:58:02.507Z,7.61
2023-02-17T12:00:38.174Z,7.47
2023-02-17T12:03:36.978Z,7.62
2023-02-17T12:06:16.527Z,7.58
2023-02-17T12:08:59.198Z,7.89
2023-02-17T12:11:37.651Z,7.73
2023-02-17T12:14:21.094Z,7.34
2023-02-17T12:16:56.905Z,7.90
2023-02-17T12:19:37.626Z,7.92
2023-02-17T12:22:19.635Z,8.01
2023-02-17T12:25:16.923Z,8.16
2023-02-17T12:27:57.703Z,8.28
2023-02-17T12:30:40.805Z,8.39
2023-02-17T12:33:24.164Z,8.30
2023-02-17T12:35:56.320Z,8.57
2023-02-17T12:38:27.915Z,8.58
2023-02-17T12:41:06.791Z,8.63
2023-02-17T12:43:39.547Z,8.90
2023-02-17T12:46:11.128Z,8.77
2023-02-17T12:48:44.228Z,8.89
2023-02-17T12:51:17.073Z,8.93
2023-02-17T12:53:50.252Z,8.81
2023-02-17T12:56:52.207Z,8.72
2023-02-17T12:59:23.161Z,8.50
2023-02-17T13:02:06.460Z,8.69
2023-02-17T13:04:36.474Z,8.76
2023-02-17T13:07:21.204Z,8.68
2023-02-17T13:09:51.502Z,9.14
2023-02-17T13:12:35.460Z,8.90
2023-02-17T13:15:04.553Z,8.87
2023-02-17T13:17:35.236Z,8.55
2023-02-17T13:20:46.213Z,8.78
2023-02-17T13:23:27.184Z,8.69
2023-02-17T13:26:32.976Z,8.89
2023-02-17T13:29:21.237Z,8.83
2023-02-17T13:31:55.043Z,8.94
2023-02-17T13:34:33.916Z,8.97
2023-02-17T13:37:16.215Z,8.86
2023-02-17T13:39:44.885Z,8.90
2023-02-17T13:42:38.983Z,8.84
2023-02-17T13:45:22.732Z,8.83
2023-02-17T13:47:52.914Z,8.85
2023-02-17T13:50:33.437Z,8.72
2023-02-17T13:53:04.261Z,8.80
2023-02-17T13:55:39.990Z,8.89
2023-02-17T13:58:15.621Z,8.64
2023-02-17T14:00:47.472Z,8.84
2023-02-17T14:03:23.095Z,8.92
2023-02-17T14:05:55.093Z,9.11
2023-02-17T14:08:33.937Z,9.28
2023-02-17T14:11:09.932Z,9.12
2023-02-17T14:13:41.406Z,9.20
2023-02-17T14:16:30.150Z,9.53
2023-02-17T14:19:06.485Z,9.30
2023-02-17T14:21:35.774Z,9.34
2023-02-17T14:24:04.764Z,9.26
2023-02-17T14:26:37.804Z,9.27
2023-02-17T14:29:08.520Z,9.34
2023-02-17T14:31:43.213Z,9.45
2023-02-17T14:34:25.882Z,9.44
2023-02-17T14:36:54.602Z,9.42
2023-02-17T14:39:23.354Z,9.59
2023-02-17T14:41:51.745Z,9.53
2023-02-17T14:44:20.066Z,9.44
2023-02-17T14:46:49.878Z,9.40
2023-02-17T14:49:18.254Z,9.38
2023-02-17T14:51:46.748Z,9.62
2023-02-17T14:54:17.304Z,9.56
2023-02-17T14:56:57.051Z,9.26
2023-02-17T14:59:25.414Z,9.43
2023-02-17T15:01:55.775Z,9.37
2023-02-17T15:04:24.192Z,9.24
2023-02-17T15:06:54.736Z,9.46
2023-02-17T15:09:30.417Z,9.47
2023-02-17T15:11:59.792Z,9.42
2023-02-17T15:14:28.060Z,9.44
2023-02-17T15:16:57.814Z,8.53
2023-02-17T15:19:26.185Z,9.56
2023-02-17T15:21:54.638Z,9.47
2023-02-17T15:24:29.883Z,9.29
2023-02-17T15:27:00.017Z,9.39
2023-02-17T15:29:28.779Z,9.64
2023-02-17T15:32:01.559Z,9.77
2023-02-17T15:34:34.175Z,9.58
2023-02-17T15:37:03.388Z,9.48
2023-02-17T15:39:32.139Z,9.63
2023-02-17T15:42:08.055Z,9.63
2023-02-17T15:44:44.698Z,9.66
2023-02-17T15:47:18.537Z,9.64
2023-02-17T15:49:47.241Z,9.52
2023-02-17T15:52:16.602Z,9.70
2023-02-17T15:54:45.602Z,9.25
2023-02-17T15:57:22.256Z,9.63
2023-02-17T15:59:50.704Z,9.19
2023-02-17T16:02:23.477Z,9.63
2023-02-17T16:04:51.894Z,9.41
2023-02-17T16:07:20.234Z,9.51
2023-02-17T16:09:48.569Z,9.58
2023-02-17T16:12:27.059Z,9.47
2023-02-17T16:14:56.761Z,9.63
2023-02-17T16:17:27.385Z,9.44
2023-02-17T16:19:55.648Z,9.41
2023-02-17T16:22:23.942Z,8.94
2023-02-17T16:24:52.355Z,9.40
2023-02-17T16:27:20.695Z,9.42
2023-02-17T16:29:49.059Z,9.69
2023-02-17T16:32:18.593Z,9.32
2023-02-17T16:34:50.890Z,9.37
2023-02-17T16:37:19.489Z,9.53
2023-02-17T16:39:48.059Z,9.35
2023-02-17T16:42:16.605Z,9.41
2023-02-17T16:44:45.489Z,9.41
2023-02-17T16:47:20.998Z,9.56
2023-02-17T16:49:52.309Z,9.67
2023-02-17T16:52:25.218Z,9.46
2023-02-17T16:54:53.808Z,9.36
2023-02-17T16:57:22.606Z,9.42
2023-02-17T16:59:51.369Z,9.42
2023-02-17T17:02:21.674Z,9.32
2023-02-17T17:04:51.676Z,9.44
2023-02-17T17:07:20.127Z,9.43
2023-02-17T17:10:14.832Z,9.51
2023-02-17T17:12:36.996Z,9.39
2023-02-17T17:15:06.195Z,9.47
2023-02-17T17:17:41.888Z,9.56
2023-02-17T17:20:15.511Z,9.56
2023-02-17T17:22:43.973Z,9.55
2023-02-17T17:25:12.491Z,9.56
2023-02-17T17:27:41.742Z,9.36
2023-02-17T17:30:16.836Z,9.39
2023-02-17T17:32:45.370Z,9.56
2023-02-17T17:35:15.830Z,9.38
2023-02-17T17:37:44.251Z,9.22
2023-02-17T17:40:18.937Z,9.31
2023-02-17T17:42:47.470Z,9.80
2023-02-17T17:45:16.101Z,9.51
2023-02-17T17:47:44.611Z,9.41
2023-02-17T17:50:18.170Z,9.14
2023-02-17T17:52:47.427Z,9.43
2023-02-17T17:55:17.551Z,9.15
2023-02-17T17:57:48.590Z,9.48
2023-02-17T18:00:21.534Z,9.48
2023-02-17T18:02:50.661Z,9.79
2023-02-17T18:05:20.652Z,9.51
2023-02-17T18:07:52.125Z,9.50
2023-02-17T18:10:21.427Z,9.40
2023-02-17T18:12:50.664Z,9.55
2023-02-17T18:15:19.907Z,9.69
2023-02-17T18:17:50.623Z,9.19
2023-02-17T18:20:20.752Z,9.31
2023-02-17T18:22:49.362Z,9.42
2023-02-17T18:25:18.372Z,9.34
2023-02-17T18:27:48.514Z,9.17
2023-02-17T18:30:19.042Z,9.31
2023-02-17T18:32:47.747Z,9.19
2023-02-17T18:35:16.988Z,9.06
2023-02-17T18:37:46.864Z,9.35
2023-02-17T18:40:17.579Z,9.32
2023-02-17T18:42:47.002Z,9.23
2023-02-17T18:45:16.502Z,9.03
2023-02-17T18:47:46.388Z,9.26
2023-02-17T18:50:16.437Z,9.24
2023-02-17T18:52:46.719Z,8.90
2023-02-17T18:55:15.130Z,8.53
2023-02-17T18:57:45.000Z,9.15
2023-02-17T19:00:16.764Z,9.16
2023-02-17T19:02:46.582Z,9.16
2023-02-17T19:05:17.575Z,9.01
2023-02-17T19:07:47.673Z,9.09
2023-02-17T19:10:16.921Z,9.40
2023-02-17T19:12:45.356Z,9.14
2023-02-17T19:15:17.909Z,9.29
2023-02-17T19:17:48.232Z,9.18
2023-02-17T19:20:17.306Z,9.20
2023-02-17T19:22:47.516Z,9.06
2023-02-17T19:25:17.287Z,9.09
2023-02-17T19:27:48.178Z,9.13
2023-02-17T19:30:18.545Z,9.10
2023-02-17T19:32:47.158Z,9.01
2023-02-17T19:35:15.946Z,8.60
2023-02-17T19:37:44.688Z,9.15
2023-02-17T19:40:15.405Z,8.99
2023-02-17T19:42:44.457Z,8.93
2023-02-17T19:45:13.628Z,9.05
2023-02-17T19:47:43.762Z,9.04
2023-02-17T19:50:12.211Z,8.97
2023-02-17T19:52:40.600Z,8.94
2023-02-17T19:55:12.069Z,9.16
2023-02-17T19:57:42.406Z,8.98
2023-02-17T20:00:11.824Z,8.94
2023-02-17T20:02:40.419Z,8.81
2023-02-17T20:05:09.391Z,8.65
2023-02-17T20:07:39.099Z,8.72
2023-02-17T20:10:12.189Z,8.82
2023-02-17T20:12:42.538Z,8.78
2023-02-17T20:15:11.679Z,8.48
2023-02-17T20:17:43.126Z,8.68
2023-02-17T20:20:13.039Z,8.63
2023-02-17T20:22:42.929Z,8.64
2023-02-17T20:25:12.095Z,8.59
2023-02-17T20:27:42.825Z,8.55
2023-02-17T20:30:12.548Z,8.45
2023-02-17T20:32:40.977Z,8.55
2023-02-17T20:35:13.538Z,8.32
2023-02-17T20:37:43.100Z,8.49
2023-02-17T20:40:11.866Z,8.36
2023-02-17T20:42:42.111Z,8.63
2023-02-17T20:45:12.636Z,8.48
2023-02-17T20:47:40.951Z,8.45
2023-02-17T20:50:10.774Z,8.52
2023-02-17T20:52:39.152Z,8.42
2023-02-17T20:55:08.542Z,8.65
2023-02-17T20:57:37.968Z,8.48
2023-02-17T21:00:09.389Z,8.48
2023-02-17T21:02:39.330Z,8.56
2023-02-17T21:05:08.877Z,8.49
2023-02-17T21:07:37.281Z,8.47
2023-02-17T21:10:08.873Z,8.49
2023-02-17T21:12:37.420Z,8.44
2023-02-17T21:15:07.997Z,8.60
2023-02-17T21:17:36.736Z,8.59
2023-02-17T21:20:06.296Z,8.49
2023-02-17T21:22:34.695Z,8.53
2023-02-17T21:25:04.640Z,8.34
2023-02-17T21:27:34.919Z,8.14
2023-02-17T21:30:04.961Z,8.45
2023-02-17T21:32:35.604Z,8.21
2023-02-17T21:35:05.988Z,8.17
2023-02-17T21:37:39.160Z,8.17
2023-02-17T21:40:10.893Z,8.11
2023-02-17T21:42:57.696Z,8.12
2023-02-17T21:45:26.748Z,8.18
2023-02-17T21:47:58.114Z,7.74
2023-02-17T21:50:27.855Z,8.21
2023-02-17T21:52:57.369Z,8.12
2023-02-17T21:55:27.134Z,8.35
2023-02-17T21:57:56.930Z,7.89
2023-02-17T22:00:26.202Z,7.93
2023-02-17T22:02:56.233Z,8.16
2023-02-17T22:05:24.678Z,8.02
2023-02-17T22:07:53.049Z,8.02
2023-02-17T22:10:21.592Z,8.06
2023-02-17T22:12:51.534Z,7.97
2023-02-17T22:15:21.194Z,7.86
2023-02-17T22:17:49.562Z,7.39
2023-02-17T22:20:19.501Z,8.09
2023-02-17T22:22:48.042Z,7.65
2023-02-17T22:25:16.471Z,7.87
2023-02-17T22:27:44.893Z,7.78
2023-02-17T22:30:14.040Z,7.98
2023-02-17T22:32:43.368Z,7.80
2023-02-17T22:35:12.531Z,5.71
2023-02-17T22:37:42.396Z,7.67
2023-02-17T22:40:11.360Z,8.09
2023-02-17T22:42:39.748Z,7.75
2023-02-17T22:45:09.275Z,7.74
2023-02-17T22:47:37.613Z,7.32
2023-02-17T22:50:06.890Z,7.75
2023-02-17T22:52:35.931Z,7.88
2023-02-17T22:55:06.278Z,7.81
2023-02-17T22:57:34.715Z,7.66
2023-02-17T23:00:03.038Z,7.79
2023-02-17T23:02:34.962Z,7.90
2023-02-17T23:05:03.456Z,7.87
2023-02-17T23:07:32.537Z,7.86
2023-02-17T23:10:00.911Z,7.92
2023-02-17T23:12:31.232Z,7.92
2023-02-17T23:14:59.491Z,7.97
2023-02-17T23:17:48.030Z,7.95
2023-02-17T23:20:16.917Z,8.12
2023-02-17T23:22:45.299Z,7.94
2023-02-17T23:25:13.673Z,7.46
2023-02-17T23:27:43.634Z,7.99
2023-02-17T23:30:18.204Z,7.93
2023-02-17T23:32:46.671Z,8.01
2023-02-17T23:35:15.147Z,8.01
2023-02-17T23:37:43.578Z,7.85
2023-02-17T23:40:12.950Z,8.03
2023-02-17T23:42:43.186Z,7.99
2023-02-17T23:45:11.909Z,7.97
2023-02-17T23:47:40.589Z,7.89
2023-02-17T23:50:10.016Z,7.80
2023-02-17T23:52:38.377Z,7.98
2023-02-17T23:55:07.379Z,8.25
2023-02-17T23:57:39.409Z,8.06
